Ledegem, Belgium
Current Conditions -  °F | °C
As of 11:30 PM on Monday 24 Nov 2014 (Local Time) from LFQQ Reporting Station
Clear Clear  
Wind Chill: 37°   Ceiling: Unl
Heat Index: 41°   Visibility: 6mi
Dew Point: 37°   Wind: 6mph
Humidity: 87%   Direction: 40°NE
Pressure: 30.3"   Gusts: NA
Location:  50.86°N, 3.12°E
Report Text: LFQQ 242230Z 04005KT CAVOK 05/03 Q1026 NOSIG
Loading
Personal Weather Stations






























Interactive Weather Map New forecast layout! Learn more

10-Day Weather Forecast

Advertisements
Track Severe Weather on mobile